Time;durP1;ratioP1;P1;durP2;ratioP2;P2;SDS_P1;SDS_P2;PMS_P1;PMS_P2;Temp;Humidity;BMP_temperature;BMP_pressure;BME280_temperature;BME280_humidity;BME280_pressure;Samples;Min_cycle;Max_cycle;Signal;HPM_P1;HPM_P2
2023/10/05 00:01:07;;;;;;;17.10;4.45;;;13.60;99.90;;;;;;5052548;28;20721;-50
2023/10/05 00:03:37;;;;;;;11.07;3.67;;;13.60;99.90;;;;;;5052732;28;20163;-53
2023/10/05 00:06:13;;;;;;;9.90;4.45;;;13.60;99.90;;;;;;5040099;28;20649;-49
2023/10/05 00:08:47;;;;;;;13.63;4.18;;;13.60;99.90;;;;;;5072204;28;20197;-49
2023/10/05 00:11:23;;;;;;;8.93;3.83;;;13.60;99.90;;;;;;5072570;28;20174;-52
2023/10/05 00:13:59;;;;;;;12.52;3.88;;;13.60;99.90;;;;;;5072229;28;20668;-53
2023/10/05 00:16:36;;;;;;;10.63;4.03;;;13.60;99.90;;;;;;5072523;28;20212;-49
2023/10/05 00:19:24;;;;;;;10.85;4.00;;;13.60;99.90;;;;;;5072570;28;20178;-51
2023/10/05 00:21:52;;;;;;;12.10;4.05;;;13.60;99.90;;;;;;5054542;28;20559;-52
2023/10/05 00:24:24;;;;;;;9.40;4.13;;;13.60;99.90;;;;;;5072384;28;20178;-50
2023/10/05 00:26:50;;;;;;;11.10;3.88;;;;;;;;;;5072265;28;20576;-53
2023/10/05 00:29:26;;;;;;;10.77;3.90;;;13.60;99.90;;;;;;5072275;28;20264;-51
2023/10/05 00:31:53;;;;;;;16.00;3.63;;;13.60;99.90;;;;;;5072175;28;20169;-48
2023/10/05 00:34:22;;;;;;;11.20;3.83;;;13.60;99.90;;;;;;5053903;28;20205;-50
2023/10/05 00:36:50;;;;;;;13.48;3.88;;;13.60;99.90;;;;;;5072210;28;20170;-49
2023/10/05 00:39:21;;;;;;;13.50;3.50;;;13.60;99.90;;;;;;5072093;28;20180;-51
2023/10/05 00:41:55;;;;;;;11.15;3.75;;;13.60;99.90;;;;;;5072071;28;20166;-50
2023/10/05 00:44:21;;;;;;;10.35;4.18;;;13.60;99.90;;;;;;5071771;28;20586;-49
2023/10/05 00:46:50;;;;;;;7.55;2.85;;;13.60;99.90;;;;;;5071677;28;20301;-49
2023/10/05 00:49:19;;;;;;;11.52;4.45;;;13.60;99.90;;;;;;5071730;28;20166;-48
2023/10/05 00:52:24;;;;;;;13.07;3.42;;;13.60;99.90;;;;;;5053852;28;20162;-48
2023/10/05 00:54:40;;;;;;;8.65;3.63;;;13.60;99.90;;;;;;5067496;28;20283;-48
2023/10/05 00:57:09;;;;;;;8.60;3.30;;;13.60;99.90;;;;;;5071802;28;20166;-51
2023/10/05 00:59:36;;;;;;;8.77;3.28;;;13.60;99.90;;;;;;5054407;28;20224;-49
2023/10/05 01:04:35;;;;;;;11.73;4.13;;;13.60;99.90;;;;;;5071278;28;20193;-50
2023/10/05 01:07:43;;;;;;;11.02;3.95;;;13.70;99.90;;;;;;5071781;28;20155;-48
2023/10/05 01:14:58;;;;;;;13.93;3.85;;;13.60;99.90;;;;;;5071649;28;20210;-48
2023/10/05 01:17:26;;;;;;;7.80;3.83;;;13.60;99.90;;;;;;5071407;28;20166;-48
2023/10/05 01:19:56;;;;;;;10.88;3.58;;;13.60;99.90;;;;;;5071362;28;20181;-49
2023/10/05 01:22:23;;;;;;;11.75;4.20;;;13.60;99.90;;;;;;5071547;28;20181;-48
2023/10/05 01:24:50;;;;;;;10.30;3.53;;;13.60;99.90;;;;;;5053265;28;20166;-49
2023/10/05 01:27:16;;;;;;;12.85;3.83;;;13.60;99.90;;;;;;5071269;28;20170;-48
2023/10/05 01:29:43;;;;;;;13.77;4.00;;;13.60;99.90;;;;;;5071316;28;20174;-48
2023/10/05 01:32:10;;;;;;;11.52;3.90;;;;;;;;;;5071061;28;20162;-49
2023/10/05 01:34:36;;;;;;;10.27;3.70;;;13.60;99.90;;;;;;5071129;28;20259;-48
2023/10/05 01:37:03;;;;;;;15.95;4.10;;;13.60;99.90;;;;;;5071885;28;20575;-47
2023/10/05 01:39:32;;;;;;;6.40;3.45;;;13.60;99.90;;;;;;5071883;28;20205;-49
2023/10/05 01:41:59;;;;;;;9.82;3.80;;;13.60;99.90;;;;;;5072010;28;20208;-48
2023/10/05 01:44:25;;;;;;;13.73;4.15;;;13.60;99.90;;;;;;5071391;28;20564;-47
2023/10/05 01:46:55;;;;;;;11.88;4.07;;;13.60;99.90;;;;;;5070937;28;20217;-47
2023/10/05 01:49:21;;;;;;;10.10;3.90;;;13.60;99.90;;;;;;5071303;28;20174;-47
2023/10/05 01:51:47;;;;;;;11.55;3.97;;;13.50;99.90;;;;;;5071130;28;20169;-49
2023/10/05 01:54:16;;;;;;;11.32;3.58;;;13.60;99.90;;;;;;5071082;28;20250;-48
2023/10/05 01:56:44;;;;;;;9.52;3.70;;;13.50;99.90;;;;;;5070941;28;20249;-48
2023/10/05 01:59:12;;;;;;;10.98;4.20;;;13.60;99.90;;;;;;5071010;28;20166;-48
2023/10/05 02:01:40;;;;;;;13.23;3.72;;;13.60;99.90;;;;;;5071214;28;20215;-49
2023/10/05 02:04:10;;;;;;;8.23;2.83;;;13.60;99.90;;;;;;5070862;28;20181;-49
2023/10/05 02:06:40;;;;;;;10.38;3.50;;;13.50;99.90;;;;;;5073759;28;20167;-52
2023/10/05 02:09:09;;;;;;;9.30;3.47;;;13.50;99.90;;;;;;5074892;28;20275;-48
2023/10/05 02:11:37;;;;;;;7.38;3.33;;;13.50;99.90;;;;;;5056641;28;20223;-48
2023/10/05 02:14:04;;;;;;;7.22;3.15;;;;;;;;;;5075189;28;20247;-52
2023/10/05 02:16:30;;;;;;;8.60;3.75;;;13.50;99.90;;;;;;5074935;28;20694;-50
2023/10/05 02:18:56;;;;;;;9.77;3.20;;;13.50;99.90;;;;;;5074473;28;20253;-48
2023/10/05 02:21:36;;;;;;;10.27;3.35;;;13.50;99.90;;;;;;5074493;28;20188;-48
2023/10/05 02:24:18;;;;;;;10.05;3.42;;;13.50;99.90;;;;;;5074794;28;20162;-47
2023/10/05 02:29:29;;;;;;;13.25;3.17;;;13.50;99.90;;;;;;5074598;28;20703;-48
2023/10/05 02:34:41;;;;;;;9.05;3.35;;;13.40;99.90;;;;;;5074190;28;20579;-50
2023/10/05 02:37:10;;;;;;;9.02;3.53;;;13.40;99.90;;;;;;5074224;28;20161;-50
2023/10/05 02:39:37;;;;;;;7.60;3.15;;;13.40;99.90;;;;;;5074149;28;20280;-48
2023/10/05 02:42:05;;;;;;;5.05;2.92;;;;;;;;;;5074354;28;20163;-48
2023/10/05 02:44:34;;;;;;;5.68;2.97;;;13.40;99.90;;;;;;5074729;28;20180;-49
2023/10/05 02:47:01;;;;;;;7.60;3.35;;;13.40;99.90;;;;;;5074348;28;20283;-52
2023/10/05 02:49:28;;;;;;;10.32;3.08;;;13.40;99.90;;;;;;5074015;28;20170;-50
2023/10/05 02:51:54;;;;;;;7.88;3.05;;;13.30;99.90;;;;;;5074145;28;20170;-49
2023/10/05 02:54:22;;;;;;;6.35;3.17;;;13.40;99.90;;;;;;5073780;28;20201;-49
2023/10/05 02:56:48;;;;;;;8.77;3.78;;;13.30;99.90;;;;;;5073714;28;20170;-51
2023/10/05 02:59:14;;;;;;;6.47;3.03;;;13.40;99.90;;;;;;5073318;28;20173;-48
2023/10/05 03:01:42;;;;;;;7.75;3.00;;;13.30;99.90;;;;;;5073631;28;20637;-49
2023/10/05 03:04:10;;;;;;;8.45;3.15;;;13.30;99.90;;;;;;5073951;28;20217;-52
2023/10/05 03:06:39;;;;;;;8.18;2.30;;;13.30;99.90;;;;;;5074014;28;20187;-48
2023/10/05 03:09:08;;;;;;;8.48;3.17;;;13.30;99.90;;;;;;5073917;28;20231;-48
2023/10/05 03:11:41;;;;;;;6.50;3.10;;;13.30;99.90;;;;;;5073632;28;20219;-49
2023/10/05 03:14:11;;;;;;;9.10;3.15;;;13.30;99.90;;;;;;5055648;28;20657;-48
2023/10/05 03:16:43;;;;;;;9.77;2.92;;;13.30;99.90;;;;;;5072852;28;20188;-48
2023/10/05 03:19:20;;;;;;;7.38;3.10;;;13.30;99.90;;;;;;5073622;28;20197;-47
2023/10/05 03:21:57;;;;;;;7.80;2.70;;;13.30;99.90;;;;;;5073734;28;20185;-49
2023/10/05 03:24:24;;;;;;;8.48;3.13;;;13.20;99.90;;;;;;5073527;28;20186;-48
2023/10/05 03:26:51;;;;;;;5.95;2.85;;;13.30;99.90;;;;;;5073332;28;20214;-47
2023/10/05 03:29:17;;;;;;;9.88;3.03;;;13.30;99.90;;;;;;5073605;28;20170;-48
2023/10/05 03:34:27;;;;;;;6.18;3.38;;;13.30;99.90;;;;;;5073050;28;20201;-48
2023/10/05 03:36:53;;;;;;;4.68;2.28;;;13.20;99.90;;;;;;5073100;28;20162;-47
2023/10/05 03:39:22;;;;;;;6.53;2.90;;;13.20;99.90;;;;;;5073096;28;20166;-47
2023/10/05 03:41:48;;;;;;;4.78;2.95;;;13.30;99.90;;;;;;5072933;28;20165;-48
2023/10/05 03:44:17;;;;;;;8.90;2.70;;;13.20;99.90;;;;;;5072870;28;20648;-47
2023/10/05 03:46:46;;;;;;;10.60;2.78;;;13.20;99.90;;;;;;5072426;28;20249;-47
2023/10/05 03:49:17;;;;;;;8.70;2.92;;;13.20;99.90;;;;;;5073025;28;20170;-49
2023/10/05 03:51:46;;;;;;;5.75;2.90;;;13.30;99.90;;;;;;5072685;28;20261;-49
2023/10/05 03:54:11;;;;;;;9.18;2.80;;;13.30;99.90;;;;;;5072990;28;20218;-50
2023/10/05 03:56:37;;;;;;;10.75;2.85;;;13.20;99.90;;;;;;5072739;28;20170;-48
2023/10/05 03:59:03;;;;;;;7.60;3.17;;;;;;;;;;5072826;28;20170;-48
2023/10/05 04:01:28;;;;;;;6.47;2.90;;;13.30;99.90;;;;;;5073117;28;20197;-48
2023/10/05 04:03:54;;;;;;;6.05;2.88;;;13.30;99.90;;;;;;5072562;28;20227;-47
2023/10/05 04:06:20;;;;;;;8.48;3.10;;;13.30;99.90;;;;;;5072358;28;20178;-48
2023/10/05 04:08:48;;;;;;;7.45;3.13;;;13.30;99.90;;;;;;5072579;28;20228;-48
2023/10/05 04:11:16;;;;;;;6.93;2.92;;;13.20;99.90;;;;;;5072684;28;20177;-48
2023/10/05 04:13:43;;;;;;;9.98;2.80;;;13.30;99.90;;;;;;5054829;28;20164;-48
2023/10/05 04:16:17;;;;;;;7.88;2.58;;;13.20;99.90;;;;;;5072528;28;20185;-48
2023/10/05 04:18:42;;;;;;;5.78;2.50;;;13.30;99.90;;;;;;5072150;28;20579;-48
2023/10/05 04:21:10;;;;;;;10.75;2.60;;;13.20;99.90;;;;;;5072166;28;20258;-48
2023/10/05 04:23:35;;;;;;;11.05;2.72;;;13.20;99.90;;;;;;5072325;28;20200;-47
2023/10/05 04:26:01;;;;;;;6.90;3.00;;;13.20;99.90;;;;;;5072757;28;20201;-48
2023/10/05 04:28:33;;;;;;;7.95;2.83;;;13.20;99.90;;;;;;5072147;28;20693;-49
2023/10/05 04:30:58;;;;;;;10.57;2.63;;;13.20;99.90;;;;;;5072574;28;20552;-48
2023/10/05 04:33:26;;;;;;;12.23;2.63;;;13.20;99.90;;;;;;5071910;28;20163;-48
2023/10/05 04:35:52;;;;;;;5.82;2.42;;;13.20;99.90;;;;;;5071743;28;20202;-47
2023/10/05 04:38:25;;;;;;;5.75;2.40;;;13.20;99.90;;;;;;5071896;28;20640;-48
2023/10/05 04:40:51;;;;;;;6.47;2.35;;;13.20;99.90;;;;;;5071876;28;20182;-47
2023/10/05 04:43:17;;;;;;;8.30;2.30;;;13.20;99.90;;;;;;5071610;28;20625;-48
2023/10/05 04:45:42;;;;;;;7.43;2.80;;;13.20;99.90;;;;;;5071632;28;20213;-48
2023/10/05 04:48:12;;;;;;;12.15;2.90;;;13.10;99.90;;;;;;5071855;28;20197;-49
2023/10/05 04:50:39;;;;;;;7.05;2.55;;;13.10;99.90;;;;;;5071481;28;20714;-47
2023/10/05 04:53:09;;;;;;;11.70;2.67;;;13.10;99.90;;;;;;5071644;28;20215;-48
2023/10/05 04:55:41;;;;;;;7.72;2.45;;;13.10;99.90;;;;;;5071545;28;20306;-47
2023/10/05 05:03:48;;;;;;;7.68;2.42;;;13.10;99.90;;;;;;5071871;28;20190;-47
2023/10/05 05:06:14;;;;;;;9.25;2.42;;;13.10;99.90;;;;;;5071783;28;20219;-49
2023/10/05 05:08:40;;;;;;;8.30;2.92;;;13.10;99.90;;;;;;5071447;28;20269;-47
2023/10/05 05:11:18;;;;;;;8.75;2.75;;;13.10;99.90;;;;;;5071550;28;20673;-47
2023/10/05 05:13:46;;;;;;;11.23;2.95;;;13.10;99.90;;;;;;5071414;28;20672;-47
2023/10/05 05:16:12;;;;;;;7.38;2.47;;;13.00;99.90;;;;;;5071750;28;20182;-48
2023/10/05 05:18:38;;;;;;;7.75;2.83;;;13.00;99.90;;;;;;5071453;28;20166;-47
2023/10/05 05:21:07;;;;;;;5.57;2.28;;;13.00;99.90;;;;;;5071385;28;20571;-47
2023/10/05 05:23:34;;;;;;;5.90;2.55;;;13.00;99.90;;;;;;5071221;28;20630;-47
2023/10/05 05:25:59;;;;;;;7.68;2.30;;;13.00;99.90;;;;;;5071845;28;20571;-47
2023/10/05 05:28:25;;;;;;;8.48;3.03;;;13.10;99.90;;;;;;5071227;28;20190;-48
2023/10/05 05:30:52;;;;;;;7.70;2.50;;;13.00;99.90;;;;;;5071267;28;20645;-47
2023/10/05 05:33:18;;;;;;;9.38;3.10;;;;;;;;;;5071545;28;20170;-48
2023/10/05 05:35:45;;;;;;;8.50;2.67;;;13.00;99.90;;;;;;5071451;28;20628;-48
2023/10/05 05:38:10;;;;;;;9.23;2.83;;;13.00;99.90;;;;;;5071457;28;20166;-47
2023/10/05 05:40:37;;;;;;;9.30;3.20;;;13.00;99.90;;;;;;5072525;28;20303;-48
2023/10/05 05:43:07;;;;;;;15.57;3.00;;;13.10;99.90;;;;;;5075534;28;20261;-48
2023/10/05 05:45:34;;;;;;;11.23;3.15;;;13.10;99.90;;;;;;5075211;28;20205;-47
2023/10/05 05:48:00;;;;;;;6.95;2.60;;;13.10;99.90;;;;;;5075790;28;20200;-47
2023/10/05 05:50:29;;;;;;;9.13;3.60;;;13.10;99.90;;;;;;5075022;28;20193;-47
2023/10/05 05:52:56;;;;;;;10.95;3.95;;;13.10;99.90;;;;;;5075095;28;20158;-48
2023/10/05 05:55:22;;;;;;;6.15;2.83;;;13.10;99.90;;;;;;5074940;28;20258;-47
2023/10/05 05:57:50;;;;;;;10.27;2.35;;;13.10;99.90;;;;;;5075263;28;20166;-47
2023/10/05 06:00:18;;;;;;;9.55;2.92;;;13.10;99.90;;;;;;5074930;28;20683;-48
2023/10/05 06:02:44;;;;;;;4.05;2.28;;;13.10;99.90;;;;;;5075095;28;20170;-49
2023/10/05 06:05:13;;;;;;;8.38;2.85;;;13.20;99.90;;;;;;5074805;28;20488;-47
2023/10/05 06:07:43;;;;;;;5.50;2.60;;;13.20;99.90;;;;;;5074757;28;20165;-48
2023/10/05 06:10:12;;;;;;;6.70;2.47;;;13.20;99.90;;;;;;5074695;28;20650;-47
2023/10/05 06:12:42;;;;;;;9.02;2.80;;;13.20;99.90;;;;;;5074536;28;20704;-47
2023/10/05 06:15:13;;;;;;;8.77;2.65;;;13.30;99.90;;;;;;5074476;28;20259;-48
2023/10/05 06:17:40;;;;;;;6.15;2.17;;;13.30;99.90;;;;;;5056657;28;20166;-49
2023/10/05 06:20:07;;;;;;;6.18;2.72;;;13.30;99.90;;;;;;5074584;28;20180;-47
2023/10/05 06:22:33;;;;;;;15.77;3.55;;;13.30;99.90;;;;;;5056650;28;20169;-48
2023/10/05 06:24:59;;;;;;;11.23;2.60;;;13.30;99.90;;;;;;5075223;28;20170;-47
2023/10/05 06:27:24;;;;;;;13.23;2.95;;;13.30;99.90;;;;;;5074445;28;20162;-48
2023/10/05 06:29:50;;;;;;;20.38;3.25;;;;;;;;;;5074456;28;20579;-51
2023/10/05 06:32:16;;;;;;;18.05;3.38;;;13.40;99.90;;;;;;5074259;28;20169;-48
2023/10/05 06:34:41;;;;;;;9.30;2.63;;;13.40;99.90;;;;;;5074251;28;20552;-49
2023/10/05 06:37:07;;;;;;;13.95;3.33;;;13.40;99.90;;;;;;5074540;28;20197;-48
2023/10/05 06:39:32;;;;;;;11.10;2.40;;;13.50;99.90;;;;;;5074205;28;20239;-48
2023/10/05 06:41:58;;;;;;;13.23;2.88;;;13.50;99.90;;;;;;5074684;28;20241;-47
2023/10/05 06:44:24;;;;;;;15.25;3.33;;;13.50;99.90;;;;;;5056121;28;20174;-48
2023/10/05 06:46:53;;;;;;;10.93;3.20;;;;;;;;;;5073873;28;20218;-50
2023/10/05 06:49:18;;;;;;;13.50;3.17;;;13.50;99.90;;;;;;5073886;28;20166;-48
2023/10/05 06:51:45;;;;;;;17.17;3.60;;;13.60;99.90;;;;;;5073858;28;20249;-47
2023/10/05 06:54:11;;;;;;;15.27;3.72;;;13.60;99.90;;;;;;5074010;28;20247;-47
2023/10/05 06:56:37;;;;;;;14.27;3.42;;;13.60;99.90;;;;;;5073757;28;20170;-47
2023/10/05 06:59:04;;;;;;;10.90;2.50;;;13.70;99.90;;;;;;5073821;28;20521;-48
2023/10/05 07:01:34;;;;;;;10.68;3.70;;;13.70;99.90;;;;;;5074185;28;20172;-48
2023/10/05 07:04:00;;;;;;;8.70;2.92;;;13.70;99.90;;;;;;5074514;28;20174;-48
2023/10/05 07:06:29;;;;;;;14.02;3.08;;;13.70;99.90;;;;;;5074208;28;20227;-47
2023/10/05 07:08:56;;;;;;;10.60;3.30;;;13.70;99.90;;;;;;5073848;28;20534;-47
2023/10/05 07:11:22;;;;;;;11.57;3.10;;;13.70;99.90;;;;;;5073512;28;20634;-48
2023/10/05 07:13:48;;;;;;;11.60;3.53;;;13.70;99.90;;;;;;5073487;28;20197;-47
2023/10/05 07:16:15;;;;;;;12.18;2.88;;;13.70;99.90;;;;;;5073611;28;20174;-47
2023/10/05 07:18:41;;;;;;;8.48;2.75;;;13.80;99.90;;;;;;5055499;28;20166;-47
2023/10/05 07:21:08;;;;;;;12.73;3.28;;;13.80;99.90;;;;;;5073574;28;20177;-47
2023/10/05 07:23:36;;;;;;;7.95;2.38;;;13.80;99.90;;;;;;5073277;28;20166;-48
2023/10/05 07:26:03;;;;;;;10.15;3.33;;;;;;;;;;5073780;28;20169;-48
2023/10/05 07:28:28;;;;;;;7.05;2.80;;;13.90;99.90;;;;;;5073896;28;20250;-48
2023/10/05 07:30:56;;;;;;;9.98;3.40;;;13.90;99.90;;;;;;5073195;28;20688;-48
2023/10/05 07:33:22;;;;;;;7.53;2.72;;;14.00;99.90;;;;;;5073446;28;20564;-49
2023/10/05 07:35:47;;;;;;;10.82;2.90;;;14.00;99.90;;;;;;5073274;28;20270;-47
2023/10/05 07:38:14;;;;;;;10.05;2.80;;;14.00;99.90;;;;;;5073088;28;20162;-47
2023/10/05 07:40:41;;;;;;;10.32;3.13;;;14.10;99.90;;;;;;5073002;28;20163;-48
2023/10/05 07:43:08;;;;;;;10.05;2.95;;;14.10;99.90;;;;;;5055412;28;20170;-47
2023/10/05 07:45:33;;;;;;;5.97;2.50;;;14.10;99.90;;;;;;5072894;28;20597;-47
2023/10/05 07:48:00;;;;;;;7.47;2.70;;;14.20;99.90;;;;;;5073275;28;20173;-47
2023/10/05 07:50:26;;;;;;;10.45;2.92;;;14.30;99.90;;;;;;5072966;28;20204;-47
2023/10/05 07:52:52;;;;;;;7.85;3.15;;;14.30;99.90;;;;;;5072782;28;20191;-47
2023/10/05 07:55:18;;;;;;;11.77;3.50;;;14.40;99.90;;;;;;5072605;28;20684;-47
2023/10/05 07:57:44;;;;;;;12.20;2.65;;;14.50;99.90;;;;;;5072925;28;20174;-47
2023/10/05 08:00:13;;;;;;;7.28;2.83;;;14.50;99.90;;;;;;5072656;28;20617;-48
2023/10/05 08:02:40;;;;;;;8.70;3.53;;;14.60;99.90;;;;;;5072494;28;20162;-47
2023/10/05 08:05:07;;;;;;;8.75;2.92;;;;;;;;;;5072230;28;20637;-47
2023/10/05 08:07:33;;;;;;;8.25;2.67;;;14.80;99.90;;;;;;5072407;28;20162;-47
2023/10/05 08:09:59;;;;;;;4.65;2.35;;;14.90;99.90;;;;;;5072839;28;20170;-47
2023/10/05 08:12:27;;;;;;;11.15;3.10;;;14.90;99.90;;;;;;5072586;28;20170;-47
2023/10/05 08:14:54;;;;;;;10.90;3.20;;;15.00;99.90;;;;;;5054329;28;20205;-48
2023/10/05 08:17:22;;;;;;;7.05;3.22;;;15.10;99.90;;;;;;5072191;28;20644;-47
2023/10/05 08:19:48;;;;;;;9.20;2.78;;;;;;;;;;5072453;28;20176;-47
2023/10/05 08:22:17;;;;;;;9.52;3.03;;;15.10;99.90;;;;;;5072131;28;20240;-47
2023/10/05 08:24:43;;;;;;;10.05;3.28;;;15.20;99.90;;;;;;5072112;28;20170;-47
2023/10/05 08:27:13;;;;;;;9.82;2.88;;;15.20;99.90;;;;;;5072085;28;20173;-46
2023/10/05 08:29:43;;;;;;;5.25;2.55;;;15.20;99.90;;;;;;5072052;28;20216;-48
2023/10/05 08:32:13;;;;;;;10.80;3.08;;;15.40;99.90;;;;;;5072014;28;20165;-48
2023/10/05 08:34:41;;;;;;;12.00;3.10;;;15.40;99.90;;;;;;5071947;28;20194;-49
2023/10/05 08:37:08;;;;;;;11.50;2.80;;;15.40;99.90;;;;;;5071896;28;20169;-50
2023/10/05 08:39:37;;;;;;;8.35;2.63;;;15.50;99.90;;;;;;5071848;28;20158;-48
2023/10/05 08:42:06;;;;;;;10.45;3.53;;;15.60;99.90;;;;;;5071876;28;20253;-48
2023/10/05 08:44:38;;;;;;;14.82;3.88;;;15.50;99.90;;;;;;5054585;28;20299;-47
2023/10/05 08:47:07;;;;;;;8.07;3.10;;;15.60;99.90;;;;;;5071648;28;20226;-47
2023/10/05 08:49:33;;;;;;;11.63;3.03;;;15.60;99.90;;;;;;5071707;28;20162;-47
2023/10/05 08:51:59;;;;;;;10.23;2.47;;;15.70;99.90;;;;;;5072332;28;20170;-51
2023/10/05 08:54:28;;;;;;;8.73;2.85;;;15.50;99.90;;;;;;5053552;28;20212;-51
2023/10/05 08:56:57;;;;;;;7.35;3.03;;;15.60;99.90;;;;;;5071592;28;20621;-49
2023/10/05 08:59:26;;;;;;;8.73;3.05;;;15.60;99.90;;;;;;5071550;28;20202;-49
2023/10/05 09:01:53;;;;;;;9.65;3.00;;;15.70;99.90;;;;;;5071623;28;20158;-51
2023/10/05 09:07:08;;;;;;;9.02;3.05;;;15.70;99.90;;;;;;5071555;28;20174;-51
2023/10/05 09:09:39;;;;;;;8.65;2.92;;;15.80;99.90;;;;;;5071663;28;20537;-51
2023/10/05 09:12:34;;;;;;;8.80;2.80;;;15.90;99.90;;;;;;5071686;28;20209;-52
2023/10/05 09:18:08;;;;;;;8.93;2.67;;;15.90;99.90;;;;;;5071792;28;20181;-52
2023/10/05 09:20:38;;;;;;;6.60;2.60;;;15.90;99.90;;;;;;5071647;28;20203;-51
2023/10/05 09:23:05;;;;;;;9.40;2.58;;;16.00;99.90;;;;;;5071412;28;20162;-52
2023/10/05 09:25:32;;;;;;;13.02;3.28;;;15.90;99.90;;;;;;5071748;28;20162;-51
2023/10/05 09:27:59;;;;;;;6.70;2.35;;;16.00;99.90;;;;;;5071766;28;20158;-51
2023/10/05 09:30:30;;;;;;;11.30;2.40;;;15.90;99.90;;;;;;5071516;28;20170;-51
2023/10/05 09:33:10;;;;;;;16.42;2.92;;;16.00;99.90;;;;;;5053318;28;20161;-52
2023/10/05 09:35:36;;;;;;;9.10;2.83;;;16.00;99.90;;;;;;5071431;28;20327;-51
2023/10/05 09:38:08;;;;;;;6.45;2.67;;;15.90;99.90;;;;;;5071118;28;20199;-48
2023/10/05 09:40:34;;;;;;;6.57;2.65;;;16.00;99.90;;;;;;5071215;28;20177;-52
2023/10/05 09:43:05;;;;;;;7.43;2.63;;;16.20;99.90;;;;;;5071682;28;20158;-52
2023/10/05 09:45:33;;;;;;;7.82;2.88;;;16.20;99.90;;;;;;5071507;28;20217;-51
2023/10/05 09:48:01;;;;;;;9.63;2.95;;;16.20;99.90;;;;;;5071524;28;20664;-51
2023/10/05 09:50:29;;;;;;;6.60;2.65;;;16.20;99.90;;;;;;5071709;28;20176;-51
2023/10/05 09:52:59;;;;;;;6.70;2.72;;;16.10;99.90;;;;;;5071358;28;20542;-51
2023/10/05 09:55:29;;;;;;;5.53;3.05;;;16.20;99.90;;;;;;5071279;28;20212;-52
2023/10/05 09:57:57;;;;;;;8.27;3.08;;;16.20;99.90;;;;;;5071266;28;20219;-52
2023/10/05 10:02:56;;;;;;;5.95;3.00;;;16.20;99.90;;;;;;5070921;28;20583;-51
2023/10/05 10:05:30;;;;;;;6.70;2.83;;;16.30;99.90;;;;;;5071208;28;20253;-52
2023/10/05 10:07:59;;;;;;;7.65;2.80;;;16.30;99.90;;;;;;5071159;28;20217;-52
2023/10/05 10:10:29;;;;;;;8.30;2.83;;;16.30;99.90;;;;;;5070857;28;20181;-52
2023/10/05 10:12:56;;;;;;;12.00;2.78;;;16.30;99.90;;;;;;5071177;28;20226;-52
2023/10/05 10:15:33;;;;;;;10.02;3.03;;;16.40;99.90;;;;;;5071056;28;20378;-51
2023/10/05 10:18:14;;;;;;;11.00;3.17;;;16.30;99.90;;;;;;5071301;28;20622;-51
2023/10/05 10:20:45;;;;;;;14.52;3.53;;;16.30;99.90;;;;;;5070994;28;20262;-52
2023/10/05 10:23:18;;;;;;;11.10;3.70;;;16.50;99.90;;;;;;5070789;28;20185;-52
2023/10/05 10:25:50;;;;;;;9.48;3.05;;;16.40;99.90;;;;;;5071005;28;20268;-51
2023/10/05 10:28:24;;;;;;;8.07;2.85;;;16.40;99.90;;;;;;5074488;28;20169;-51
2023/10/05 10:31:19;;;;;;;8.88;2.70;;;16.50;99.90;;;;;;5074231;28;20165;-51
2023/10/05 10:33:51;;;;;;;11.45;3.40;;;16.30;99.90;;;;;;5074382;28;20165;-48
2023/10/05 10:36:23;;;;;;;7.50;2.78;;;16.20;99.90;;;;;;5074550;28;20181;-48
2023/10/05 10:38:50;;;;;;;7.78;2.90;;;16.20;99.90;;;;;;5074261;28;20633;-52
2023/10/05 10:41:17;;;;;;;11.13;3.08;;;16.20;99.90;;;;;;5074209;28;20166;-52
2023/10/05 10:43:49;;;;;;;6.72;2.60;;;16.20;99.90;;;;;;5074407;28;20211;-50
2023/10/05 10:46:34;;;;;;;12.63;3.30;;;16.20;99.90;;;;;;5074034;28;20555;-51
2023/10/05 10:49:00;;;;;;;8.48;3.00;;;16.20;99.90;;;;;;5074453;28;20660;-51
2023/10/05 10:51:35;;;;;;;14.23;3.45;;;16.20;99.90;;;;;;5074002;28;20170;-49
2023/10/05 10:54:14;;;;;;;7.60;3.22;;;16.40;99.90;;;;;;5074530;28;20224;-51
2023/10/05 10:56:44;;;;;;;5.35;2.50;;;16.40;99.90;;;;;;5073865;28;20222;-51
2023/10/05 10:59:11;;;;;;;9.80;2.72;;;16.50;99.90;;;;;;5074147;28;20177;-45
2023/10/05 11:01:42;;;;;;;9.27;3.22;;;16.50;99.90;;;;;;5074076;28;20174;-52
2023/10/05 11:04:32;;;;;;;10.73;2.80;;;16.60;99.90;;;;;;5073992;28;20275;-48
2023/10/05 11:07:05;;;;;;;6.10;2.80;;;16.80;99.90;;;;;;5073859;28;20182;-49
2023/10/05 11:09:36;;;;;;;7.38;2.53;;;16.90;99.90;;;;;;5074315;28;20544;-47
2023/10/05 11:12:10;;;;;;;9.18;2.85;;;16.80;99.90;;;;;;5073851;28;20204;-49
2023/10/05 11:14:42;;;;;;;8.55;2.95;;;16.90;99.90;;;;;;5073713;28;20294;-49
2023/10/05 11:17:30;;;;;;;7.07;2.55;;;17.00;99.90;;;;;;5073749;28;20178;-50
2023/10/05 11:20:17;;;;;;;7.57;2.70;;;17.00;99.90;;;;;;5073875;28;20251;-49
2023/10/05 11:22:43;;;;;;;5.22;2.90;;;16.90;99.90;;;;;;5073631;28;20629;-47
2023/10/05 11:25:17;;;;;;;6.65;3.03;;;17.00;99.90;;;;;;5073634;28;20192;-50
2023/10/05 11:27:56;;;;;;;5.47;2.72;;;16.90;99.90;;;;;;5073550;28;20177;-47
2023/10/05 11:30:41;;;;;;;9.85;3.05;;;16.80;99.90;;;;;;5073257;28;20169;-46
2023/10/05 11:33:15;;;;;;;8.63;3.63;;;16.90;99.90;;;;;;5073156;28;20201;-47
2023/10/05 11:35:48;;;;;;;10.13;2.55;;;16.90;99.90;;;;;;5073055;28;20342;-47
2023/10/05 11:38:16;;;;;;;9.27;3.17;;;17.00;99.90;;;;;;5072566;28;20178;-49
2023/10/05 11:40:55;;;;;;;6.95;2.55;;;17.10;99.90;;;;;;5073155;28;20166;-48
2023/10/05 11:43:22;;;;;;;9.63;3.05;;;17.10;99.90;;;;;;5073248;28;20193;-47
2023/10/05 11:46:17;;;;;;;8.73;2.95;;;17.00;99.90;;;;;;5072739;28;20580;-47
2023/10/05 11:48:48;;;;;;;9.73;2.80;;;17.30;99.90;;;;;;5073249;28;20175;-46
2023/10/05 11:51:16;;;;;;;10.63;3.40;;;17.40;99.90;;;;;;5073097;28;20166;-46
2023/10/05 11:53:43;;;;;;;6.53;2.53;;;17.50;99.90;;;;;;5073107;28;20166;-47
2023/10/05 11:56:09;;;;;;;9.68;2.85;;;17.60;99.90;;;;;;5072644;28;20200;-46
2023/10/05 11:58:41;;;;;;;10.63;2.88;;;17.60;99.90;;;;;;5072960;28;20178;-49
2023/10/05 12:01:07;;;;;;;5.68;2.35;;;17.90;99.90;;;;;;5072838;28;20536;-48
2023/10/05 12:03:33;;;;;;;7.45;2.95;;;17.90;99.90;;;;;;5072765;28;20256;-47
2023/10/05 12:06:02;;;;;;;9.50;2.88;;;17.90;99.90;;;;;;5073010;28;20231;-46
2023/10/05 12:08:29;;;;;;;8.32;2.58;;;18.00;99.90;;;;;;5073329;28;20170;-47
2023/10/05 12:10:59;;;;;;;7.03;2.60;;;18.00;99.90;;;;;;5072618;28;20247;-52
2023/10/05 12:13:26;;;;;;;9.93;2.78;;;18.00;99.90;;;;;;5072646;28;20174;-47
2023/10/05 12:15:52;;;;;;;7.53;2.40;;;;;;;;;;5072224;28;20534;-48
2023/10/05 12:18:17;;;;;;;9.75;2.88;;;18.10;99.90;;;;;;5072319;28;20192;-48
2023/10/05 12:20:43;;;;;;;12.25;2.47;;;17.90;99.90;;;;;;5072298;28;20173;-48
2023/10/05 12:23:14;;;;;;;6.97;2.60;;;17.80;99.90;;;;;;5072271;28;20177;-47
2023/10/05 12:25:41;;;;;;;8.55;2.67;;;17.70;99.90;;;;;;5072232;28;20154;-48
2023/10/05 12:28:08;;;;;;;6.25;2.45;;;17.90;99.90;;;;;;5072468;28;20170;-48
2023/10/05 12:30:39;;;;;;;6.63;2.45;;;18.20;99.90;;;;;;5072135;28;20166;-48
2023/10/05 12:33:08;;;;;;;9.38;2.83;;;;;;;;;;5071955;28;20659;-49
2023/10/05 12:35:36;;;;;;;7.10;2.88;;;18.60;99.90;;;;;;5072115;28;20212;-49
2023/10/05 12:38:06;;;;;;;11.38;2.17;;;18.70;99.90;;;;;;5072186;28;20181;-46
2023/10/05 12:40:33;;;;;;;5.72;2.42;;;18.70;99.90;;;;;;5072152;28;20564;-47
2023/10/05 12:43:00;;;;;;;6.97;2.25;;;18.70;99.90;;;;;;5072236;28;20166;-47
2023/10/05 12:45:26;;;;;;;14.38;3.88;;;18.70;99.90;;;;;;5054158;28;20668;-48
2023/10/05 12:47:53;;;;;;;5.22;2.20;;;19.10;99.90;;;;;;5071795;28;20166;-49
2023/10/05 12:50:20;;;;;;;5.72;2.40;;;18.80;99.90;;;;;;5071581;28;20530;-49
2023/10/05 12:52:46;;;;;;;4.45;1.80;;;18.80;99.90;;;;;;5072033;28;20181;-48
2023/10/05 12:55:12;;;;;;;30.25;3.85;;;19.10;99.90;;;;;;5071855;28;20209;-47
2023/10/05 12:57:38;;;;;;;5.93;2.47;;;19.20;99.90;;;;;;5071729;28;20241;-49
2023/10/05 13:00:19;;;;;;;5.88;2.45;;;18.90;99.90;;;;;;5071804;28;20180;-49
2023/10/05 13:02:50;;;;;;;8.13;2.55;;;19.10;99.90;;;;;;5071847;28;20223;-47
2023/10/05 13:05:18;;;;;;;9.75;2.88;;;18.70;99.90;;;;;;5071823;28;20177;-48
2023/10/05 13:07:46;;;;;;;13.38;3.03;;;18.40;99.90;;;;;;5071423;28;20644;-50
2023/10/05 13:10:21;;;;;;;13.57;3.17;;;18.30;99.90;;;;;;5071745;28;20184;-49
2023/10/05 13:12:51;;;;;;;13.55;4.07;;;18.30;99.90;;;;;;5071668;28;20170;-47
2023/10/05 13:15:19;;;;;;;10.52;2.70;;;18.60;99.90;;;;;;5071520;28;20240;-50
2023/10/05 13:17:46;;;;;;;7.75;2.92;;;18.80;99.90;;;;;;5071698;28;20171;-48
2023/10/05 13:20:15;;;;;;;8.07;2.53;;;18.70;99.90;;;;;;5071562;28;20224;-48
2023/10/05 13:22:44;;;;;;;5.07;2.15;;;18.50;99.90;;;;;;5071392;28;20614;-48
2023/10/05 13:25:11;;;;;;;6.07;2.42;;;18.50;99.90;;;;;;5071318;28;20170;-47
2023/10/05 13:27:37;;;;;;;24.20;3.88;;;18.40;99.90;;;;;;5071363;28;20181;-47